createdAt,value
2022-09-05T00:02:02.483Z,101525.00
2022-09-05T00:05:23.431Z,101521.69
2022-09-05T00:08:12.429Z,101533.94
2022-09-05T00:11:43.320Z,101527.06
2022-09-05T00:15:16.017Z,101528.13
2022-09-05T00:24:17.024Z,101528.88
2022-09-05T00:24:29.934Z,101524.63
2022-09-05T00:28:30.981Z,101531.53
2022-09-05T00:31:54.936Z,101529.13
2022-09-05T00:35:19.133Z,101538.56
2022-09-05T00:38:22.297Z,101536.13
2022-09-05T00:41:14.065Z,101533.47
2022-09-05T00:44:02.364Z,101531.97
2022-09-05T00:47:03.849Z,101530.31
2022-09-05T00:50:03.642Z,101536.31
2022-09-05T00:53:07.478Z,101518.09
2022-09-05T00:56:36.137Z,101527.81
2022-09-05T00:59:34.094Z,101524.47
2022-09-05T01:02:51.941Z,101519.34
2022-09-05T01:05:59.325Z,101523.13
2022-09-05T01:09:07.998Z,101519.75
2022-09-05T01:12:18.520Z,101528.69
2022-09-05T01:15:32.789Z,101533.06
2022-09-05T01:18:46.922Z,101533.16
2022-09-05T01:21:48.437Z,101526.25
2022-09-05T01:24:55.531Z,101530.69
2022-09-05T01:28:59.956Z,101533.34
2022-09-05T01:31:57.100Z,101537.72
2022-09-05T01:34:43.243Z,101532.50
2022-09-05T01:37:48.235Z,101527.34
2022-09-05T01:40:34.647Z,101530.00
2022-09-05T01:43:42.172Z,101535.94
2022-09-05T01:46:54.165Z,101531.66
2022-09-05T01:50:00.817Z,101535.25
2022-09-05T01:53:05.825Z,101535.31
2022-09-05T01:56:04.026Z,101536.34
2022-09-05T01:59:36.858Z,101528.66
2022-09-05T02:02:50.778Z,101525.19
2022-09-05T02:06:29.470Z,101533.94
2022-09-05T02:09:41.041Z,101531.41
2022-09-05T02:12:31.276Z,101544.50
2022-09-05T02:15:22.130Z,101527.25
2022-09-05T02:18:20.637Z,101532.53
2022-09-05T02:21:55.514Z,101537.72
2022-09-05T02:24:47.575Z,101537.72
2022-09-05T02:28:04.360Z,101538.66
2022-09-05T02:31:11.608Z,101545.72
2022-09-05T02:34:31.051Z,101542.25
2022-09-05T02:38:47.093Z,101541.44
2022-09-05T02:45:12.502Z,101542.34
2022-09-05T02:45:21.086Z,101548.44
2022-09-05T02:47:51.196Z,101544.97
2022-09-05T02:56:55.147Z,101545.03
2022-09-05T02:57:38.792Z,101547.69
2022-09-05T02:58:05.926Z,101552.09
2022-09-05T03:00:55.087Z,101553.00
2022-09-05T03:04:14.472Z,101553.06
2022-09-05T03:07:40.892Z,101550.47
2022-09-05T03:11:26.892Z,101552.22
2022-09-05T03:14:46.195Z,101552.22
2022-09-05T03:17:44.466Z,101556.56
2022-09-05T03:20:51.320Z,101560.94
2022-09-05T03:23:57.894Z,101556.59
2022-09-05T03:27:33.435Z,101560.91
2022-09-05T03:30:25.349Z,101558.31
2022-09-05T03:33:42.122Z,101567.88
2022-09-05T03:36:59.447Z,101569.59
2022-09-05T03:40:23.460Z,101564.41
2022-09-05T03:43:35.948Z,101569.66
2022-09-05T03:46:48.858Z,101574.88
2022-09-05T03:52:28.780Z,101567.06
2022-09-05T03:57:17.966Z,101564.47
2022-09-05T03:57:25.712Z,101573.13
2022-09-05T03:59:49.522Z,101577.47
2022-09-05T04:04:54.905Z,101584.41
2022-09-05T04:08:26.844Z,101580.94
2022-09-05T04:09:53.290Z,101586.16
2022-09-05T04:12:48.634Z,101593.97
2022-09-05T04:15:45.991Z,101587.00
2022-09-05T04:18:42.799Z,101593.09
2022-09-05T04:21:36.405Z,101593.09
2022-09-05T04:25:05.248Z,101589.63
2022-09-05T04:28:14.384Z,101593.97
2022-09-05T04:31:39.062Z,101596.53
2022-09-05T04:34:43.219Z,101601.75
2022-09-05T04:37:56.265Z,101599.13
2022-09-05T04:40:48.938Z,101608.69
2022-09-05T04:43:46.584Z,101607.81
2022-09-05T04:46:48.822Z,101601.72
2022-09-05T04:49:41.207Z,101602.50
2022-09-05T04:52:52.232Z,101607.69
2022-09-05T04:55:44.720Z,101609.28
2022-09-05T04:59:58.241Z,101616.13
2022-09-05T05:06:00.080Z,101613.44
2022-09-05T05:06:10.259Z,101607.88
2022-09-05T05:09:02.209Z,101621.81
2022-09-05T05:17:54.302Z,101615.78
2022-09-05T05:18:09.768Z,101617.69
2022-09-05T05:18:49.003Z,101613.44
2022-09-05T05:21:47.711Z,101617.53
2022-09-05T05:24:41.823Z,101615.84
2022-09-05T05:28:14.974Z,101621.97
2022-09-05T05:31:21.931Z,101618.97
2022-09-05T05:34:32.411Z,101623.75
2022-09-05T05:37:37.246Z,101622.88
2022-09-05T05:40:31.850Z,101619.19
2022-09-05T05:43:40.838Z,101629.38
2022-09-05T05:46:37.951Z,101632.13
2022-09-05T05:49:39.417Z,101631.00
2022-09-05T05:52:38.145Z,101635.31
2022-09-05T05:55:51.936Z,101636.97
2022-09-05T05:58:44.983Z,101641.41
2022-09-05T06:02:16.661Z,101641.53
2022-09-05T06:05:04.141Z,101642.88
2022-09-05T06:12:33.080Z,101644.25
2022-09-05T06:15:01.180Z,101642.50
2022-09-05T06:15:19.356Z,101640.09
2022-09-05T06:18:28.155Z,101641.22
2022-09-05T06:22:10.456Z,101638.19
2022-09-05T06:25:17.321Z,101649.69
2022-09-05T06:28:18.649Z,101647.72
2022-09-05T06:31:29.545Z,101655.34
2022-09-05T06:34:52.211Z,101654.59
2022-09-05T06:37:48.165Z,101649.44
2022-09-05T06:41:00.986Z,101655.72
2022-09-05T06:44:23.867Z,101652.09
2022-09-05T06:47:24.113Z,101658.44
2022-09-05T06:50:28.220Z,101664.84
2022-09-05T06:53:35.624Z,101670.06
2022-09-05T06:57:10.212Z,101669.06
2022-09-05T06:59:56.822Z,101675.03
2022-09-05T07:03:04.533Z,101674.16
2022-09-05T07:06:08.059Z,101680.69
2022-09-05T07:09:12.820Z,101684.41
2022-09-05T07:12:19.175Z,101685.50
2022-09-05T07:15:29.015Z,101681.63
2022-09-05T07:18:26.160Z,101686.59
2022-09-05T07:21:26.454Z,101679.34
2022-09-05T07:24:53.625Z,101683.66
2022-09-05T07:28:25.761Z,101684.78
2022-09-05T07:30:59.783Z,101681.56
2022-09-05T07:33:48.353Z,101679.97
2022-09-05T07:36:50.255Z,101689.44
2022-09-05T07:40:11.273Z,101684.41
2022-09-05T07:43:15.043Z,101691.09
2022-09-05T07:46:13.971Z,101691.00
2022-09-05T07:49:05.107Z,101693.88
2022-09-05T07:56:59.248Z,101698.88
2022-09-05T07:57:01.707Z,101704.25
2022-09-05T07:58:50.463Z,101694.22
2022-09-05T08:01:41.114Z,101696.25
2022-09-05T08:04:39.452Z,101705.94
2022-09-05T08:07:48.688Z,101700.16
2022-09-05T08:11:23.361Z,101709.97
2022-09-05T08:14:44.047Z,101699.31
2022-09-05T08:17:30.166Z,101694.28
2022-09-05T08:20:31.205Z,101703.53
2022-09-05T08:23:43.368Z,101700.53
2022-09-05T08:26:57.429Z,101691.47
2022-09-05T08:29:51.271Z,101689.72
2022-09-05T08:33:10.743Z,101683.25
2022-09-05T08:36:09.713Z,101686.13
2022-09-05T08:39:01.167Z,101683.56
2022-09-05T08:42:14.463Z,101684.78
2022-09-05T08:46:46.892Z,101678.34
2022-09-05T08:48:40.278Z,101676.56
2022-09-05T08:51:54.441Z,101681.69
2022-09-05T08:55:05.834Z,101674.88
2022-09-05T08:57:56.111Z,101670.22
2022-09-05T09:01:00.272Z,101672.47
2022-09-05T09:03:51.975Z,101675.59
2022-09-05T09:07:12.282Z,101669.91
2022-09-05T09:10:27.832Z,101663.84
2022-09-05T09:13:53.413Z,101665.28
2022-09-05T09:16:58.095Z,101662.75
2022-09-05T09:19:59.750Z,101661.44
2022-09-05T09:23:06.273Z,101649.97
2022-09-05T09:25:58.630Z,101651.59
2022-09-05T09:28:51.988Z,101646.41
2022-09-05T09:31:56.486Z,101635.94
2022-09-05T09:35:00.184Z,101638.47
2022-09-05T09:38:03.557Z,101634.47
2022-09-05T09:41:02.678Z,101638.75
2022-09-05T09:44:35.055Z,101632.13
2022-09-05T09:48:05.482Z,101635.31
2022-09-05T09:51:09.655Z,101633.25
2022-09-05T09:54:10.599Z,101626.66
2022-09-05T09:57:17.956Z,101624.13
2022-09-05T10:00:14.688Z,101621.09
2022-09-05T10:08:26.988Z,101612.63
2022-09-05T10:10:50.463Z,101609.75
2022-09-05T10:10:54.002Z,101615.00
2022-09-05T10:14:04.034Z,101610.38
2022-09-05T10:17:15.546Z,101605.28
2022-09-05T10:20:09.139Z,101594.31
2022-09-05T10:23:07.791Z,101593.34
2022-09-05T10:26:24.748Z,101595.88
2022-09-05T10:29:52.816Z,101574.78
2022-09-05T10:35:05.198Z,101588.34
2022-09-05T10:35:51.976Z,101571.56
2022-09-05T10:38:44.713Z,101581.00
2022-09-05T10:41:49.262Z,101585.06
2022-09-05T10:44:48.971Z,101581.25
2022-09-05T10:47:35.648Z,101582.09
2022-09-05T10:50:27.735Z,101580.03
2022-09-05T10:53:43.464Z,101578.19
2022-09-05T10:56:37.287Z,101573.72
2022-09-05T11:02:21.799Z,101572.19
2022-09-05T11:03:04.046Z,101580.59
2022-09-05T11:06:09.089Z,101576.13
2022-09-05T11:09:39.206Z,101566.69
2022-09-05T11:13:11.311Z,101570.88
2022-09-05T11:16:25.957Z,101563.75
2022-09-05T11:19:29.952Z,101568.03
2022-09-05T11:22:22.791Z,101571.84
2022-09-05T11:25:40.021Z,101558.97
2022-09-05T11:29:00.386Z,101569.31
2022-09-05T11:34:53.060Z,101552.78
2022-09-05T11:39:51.718Z,101558.69
2022-09-05T11:39:55.187Z,101554.69
2022-09-05T11:42:09.827Z,101546.50
2022-09-05T11:45:27.052Z,101548.78
2022-09-05T11:48:46.578Z,101550.69
2022-09-05T11:52:03.773Z,101548.78
2022-09-05T11:55:00.150Z,101546.69
2022-09-05T11:58:43.151Z,101541.75
2022-09-05T12:01:43.441Z,101546.88
2022-09-05T12:05:48.446Z,101541.94
2022-09-05T12:08:42.600Z,101531.84
2022-09-05T12:11:55.193Z,101529.59
2022-09-05T12:15:12.551Z,101534.31
2022-09-05T12:18:19.354Z,101529.25
2022-09-05T12:21:18.299Z,101525.38
2022-09-05T12:25:23.670Z,101518.63
2022-09-05T12:27:46.087Z,101524.66
2022-09-05T12:31:12.015Z,101517.94
2022-09-05T12:40:15.733Z,101512.41
2022-09-05T12:41:42.175Z,101517.84
2022-09-05T12:42:10.358Z,101514.31
2022-09-05T12:44:39.324Z,101509.63
2022-09-05T12:47:17.170Z,101513.91
2022-09-05T12:50:17.821Z,101501.31
2022-09-05T12:53:24.839Z,101501.16
2022-09-05T12:58:57.223Z,101499.47
2022-09-05T13:02:57.342Z,101478.56
2022-09-05T13:03:27.709Z,101490.72
2022-09-05T13:06:25.165Z,101486.13
2022-09-05T13:09:37.183Z,101489.03
2022-09-05T13:14:54.759Z,101486.94
2022-09-05T13:15:58.043Z,101482.72
2022-09-05T13:18:46.459Z,101481.22
2022-09-05T13:21:37.874Z,101484.03
2022-09-05T13:24:32.231Z,101487.91
2022-09-05T13:27:27.372Z,101477.91
2022-09-05T13:31:56.328Z,101478.16
2022-09-05T13:38:10.557Z,101476.53
2022-09-05T13:38:29.195Z,101474.63
2022-09-05T13:39:59.579Z,101464.94
2022-09-05T13:43:06.149Z,101463.59
2022-09-05T13:46:06.514Z,101455.75
2022-09-05T13:52:35.674Z,101451.56
2022-09-05T13:55:41.932Z,101452.91
2022-09-05T13:58:42.796Z,101452.97
2022-09-05T14:02:26.937Z,101457.03
2022-09-05T14:05:32.249Z,101450.97
2022-09-05T14:08:33.621Z,101445.25
2022-09-05T14:11:41.139Z,101436.13
2022-09-05T14:18:21.324Z,101432.91
2022-09-05T14:21:18.953Z,101443.72
2022-09-05T14:24:27.351Z,101440.84
2022-09-05T14:27:25.893Z,101438.88
2022-09-05T14:37:42.766Z,101441.28
2022-09-05T14:37:46.137Z,101432.91
2022-09-05T14:37:51.911Z,101440.75
2022-09-05T14:40:43.741Z,101428.06
2022-09-05T14:43:26.866Z,101434.72
2022-09-05T14:46:00.372Z,101428.53
2022-09-05T14:48:46.425Z,101428.06
2022-09-05T14:51:30.053Z,101433.59
2022-09-05T14:54:05.314Z,101429.44
2022-09-05T15:01:23.379Z,101424.28
2022-09-05T15:02:50.442Z,101422.06
2022-09-05T15:03:02.057Z,101421.53
2022-09-05T15:05:41.109Z,101426.19
2022-09-05T15:09:42.160Z,101415.53
2022-09-05T15:12:21.029Z,101416.56
2022-09-05T15:14:08.495Z,101418.59
2022-09-05T15:16:45.767Z,101418.03
2022-09-05T15:19:55.309Z,101413.81
2022-09-05T15:22:38.112Z,101417.25
2022-09-05T15:25:19.968Z,101416.44
2022-09-05T15:27:50.400Z,101417.59
2022-09-05T15:30:21.312Z,101416.25
2022-09-05T15:32:50.943Z,101413.34
2022-09-05T15:35:42.291Z,101409.41
2022-09-05T15:38:54.333Z,101409.22
2022-09-05T15:41:34.331Z,101413.59
2022-09-05T15:44:14.891Z,101411.63
2022-09-05T15:46:57.212Z,101415.41
2022-09-05T15:49:30.951Z,101408.53
2022-09-05T15:52:11.190Z,101408.38
2022-09-05T15:54:53.148Z,101404.63
2022-09-05T15:57:29.428Z,101414.00
2022-09-05T16:00:00.136Z,101408.78
2022-09-05T16:02:35.143Z,101404.53
2022-09-05T16:09:08.811Z,101407.31
2022-09-05T16:10:41.777Z,101401.63
2022-09-05T16:12:00.522Z,101397.28
2022-09-05T16:14:28.553Z,101394.94
2022-09-05T16:23:16.013Z,101398.03
2022-09-05T16:23:27.591Z,101395.91
2022-09-05T16:23:35.247Z,101392.22
2022-09-05T16:26:25.672Z,101390.66
2022-09-05T16:29:10.394Z,101391.63
2022-09-05T16:31:48.593Z,101380.75
2022-09-05T16:34:45.405Z,101378.81
2022-09-05T16:37:16.709Z,101379.59
2022-09-05T16:40:08.201Z,101381.88
2022-09-05T16:42:54.851Z,101382.94
2022-09-05T16:45:46.773Z,101381.16
2022-09-05T16:48:33.625Z,101381.94
2022-09-05T16:51:24.707Z,101389.16
2022-09-05T16:54:03.865Z,101385.72
2022-09-05T16:56:41.783Z,101382.94
2022-09-05T16:59:17.318Z,101388.38
2022-09-05T17:02:07.425Z,101384.56
2022-09-05T17:05:04.520Z,101376.63
2022-09-05T17:07:45.254Z,101379.50
2022-09-05T17:10:19.327Z,101388.94
2022-09-05T17:12:54.054Z,101391.75
2022-09-05T17:15:31.344Z,101387.94
2022-09-05T17:18:19.668Z,101385.28
2022-09-05T17:21:00.546Z,101383.50
2022-09-05T17:29:24.707Z,101381.09
2022-09-05T17:29:38.349Z,101378.81
2022-09-05T17:32:47.261Z,101386.28
2022-09-05T17:35:56.824Z,101394.47
2022-09-05T17:38:53.157Z,101390.69
2022-09-05T17:42:14.872Z,101387.81
2022-09-05T17:45:10.909Z,101391.19
2022-09-05T17:47:51.029Z,101393.47
2022-09-05T17:50:51.141Z,101404.66
2022-09-05T17:53:25.819Z,101396.25
2022-09-05T17:55:55.390Z,101399.44
2022-09-05T17:58:48.939Z,101408.69
2022-09-05T18:01:26.634Z,101407.28
2022-09-05T18:04:16.945Z,101413.44
2022-09-05T18:06:55.398Z,101410.28
2022-09-05T18:09:40.742Z,101404.28
2022-09-05T18:13:13.840Z,101418.19
2022-09-05T18:15:40.419Z,101416.78
2022-09-05T18:19:28.051Z,101423.94
2022-09-05T18:21:23.107Z,101415.66
2022-09-05T18:24:02.278Z,101423.50
2022-09-05T18:26:42.642Z,101427.25
2022-09-05T18:29:57.144Z,101425.91
2022-09-05T18:32:13.059Z,101428.78
2022-09-05T18:34:43.393Z,101429.25
2022-09-05T18:37:36.264Z,101428.59
2022-09-05T18:40:16.650Z,101437.56
2022-09-05T18:43:10.357Z,101432.50
2022-09-05T18:45:52.251Z,101435.22
2022-09-05T18:48:29.045Z,101435.22
2022-09-05T18:51:15.488Z,101428.47
2022-09-05T18:53:47.560Z,101434.66
2022-09-05T18:56:31.136Z,101432.19
2022-09-05T18:59:24.013Z,101424.78
2022-09-05T19:02:07.424Z,101426.53
2022-09-05T19:04:58.799Z,101424.06
2022-09-05T19:07:35.662Z,101427.34
2022-09-05T19:10:36.139Z,101430.06
2022-09-05T19:13:24.119Z,101434.19
2022-09-05T19:16:42.513Z,101430.22
2022-09-05T19:19:18.473Z,101422.41
2022-09-05T19:22:33.319Z,101419.22
2022-09-05T19:24:46.160Z,101416.88
2022-09-05T19:29:45.862Z,101416.22
2022-09-05T19:36:50.137Z,101419.84
2022-09-05T19:36:50.206Z,101411.84
2022-09-05T19:36:53.191Z,101417.66
2022-09-05T19:43:19.896Z,101420.50
2022-09-05T19:47:35.036Z,101415.22
2022-09-05T19:47:41.665Z,101412.09
2022-09-05T19:50:24.255Z,101414.34
2022-09-05T19:53:02.773Z,101417.22
2022-09-05T19:55:35.785Z,101412.03
2022-09-05T19:58:18.952Z,101422.31
2022-09-05T20:01:01.535Z,101429.22
2022-09-05T20:03:38.533Z,101424.97
2022-09-05T20:06:29.643Z,101419.91
2022-09-05T20:09:18.844Z,101427.44
2022-09-05T20:11:52.754Z,101423.56
2022-09-05T20:14:22.263Z,101434.47
2022-09-05T20:16:52.442Z,101422.97
2022-09-05T20:19:29.533Z,101428.16
2022-09-05T20:22:24.243Z,101432.69
2022-09-05T20:24:50.421Z,101427.69
2022-09-05T20:27:19.215Z,101428.50
2022-09-05T20:30:05.496Z,101431.19
2022-09-05T20:32:42.298Z,101424.09
2022-09-05T20:39:12.717Z,101429.50
2022-09-05T20:43:15.896Z,101424.41
2022-09-05T20:43:19.345Z,101428.41
2022-09-05T20:44:22.421Z,101422.22
2022-09-05T20:52:45.863Z,101427.34
2022-09-05T20:54:23.024Z,101434.78
2022-09-05T20:54:28.945Z,101430.09
2022-09-05T20:56:03.475Z,101436.53
2022-09-05T20:58:32.721Z,101427.06
2022-09-05T21:01:21.541Z,101431.56
2022-09-05T21:04:05.545Z,101431.72
2022-09-05T21:06:41.326Z,101428.38
2022-09-05T21:09:14.954Z,101426.75
2022-09-05T21:11:47.972Z,101421.47
2022-09-05T21:14:22.930Z,101433.78
2022-09-05T21:17:15.738Z,101438.31
2022-09-05T21:19:53.456Z,101445.88
2022-09-05T21:22:43.614Z,101444.56
2022-09-05T21:25:36.015Z,101449.19
2022-09-05T21:28:36.425Z,101442.00
2022-09-05T21:31:13.709Z,101450.78
2022-09-05T21:33:45.918Z,101445.66
2022-09-05T21:36:15.882Z,101451.81
2022-09-05T21:38:44.299Z,101441.09
2022-09-05T21:41:16.215Z,101460.47
2022-09-05T21:47:34.943Z,101451.13
2022-09-05T21:47:47.284Z,101454.69
2022-09-05T21:49:23.334Z,101467.22
2022-09-05T21:51:51.872Z,101461.00
2022-09-05T21:59:18.297Z,101462.81
2022-09-05T21:59:19.660Z,101465.69
2022-09-05T22:00:14.623Z,101465.78
2022-09-05T22:02:49.090Z,101470.34
2022-09-05T22:05:17.281Z,101465.78
2022-09-05T22:07:44.962Z,101468.44
2022-09-05T22:10:12.865Z,101467.69
2022-09-05T22:12:41.057Z,101460.06
2022-09-05T22:15:27.586Z,101455.84
2022-09-05T22:18:17.623Z,101450.88
2022-09-05T22:20:51.427Z,101458.66
2022-09-05T22:23:39.437Z,101451.69
2022-09-05T22:26:07.302Z,101449.19
2022-09-05T22:28:38.766Z,101451.81
2022-09-05T22:31:07.813Z,101450.22
2022-09-05T22:33:36.428Z,101460.56
2022-09-05T22:36:04.915Z,101452.84
2022-09-05T22:38:33.455Z,101462.53
2022-09-05T22:41:01.140Z,101456.41
2022-09-05T22:43:34.001Z,101455.50
2022-09-05T22:46:01.873Z,101456.25
2022-09-05T22:48:29.923Z,101450.19
2022-09-05T22:50:58.122Z,101453.75
2022-09-05T22:53:26.026Z,101457.97
2022-09-05T22:56:02.972Z,101444.03
2022-09-05T22:58:35.953Z,101451.03
2022-09-05T23:01:03.756Z,101448.47
2022-09-05T23:03:31.869Z,101449.34
2022-09-05T23:06:10.636Z,101452.19
2022-09-05T23:08:38.443Z,101452.22
2022-09-05T23:11:17.294Z,101446.03
2022-09-05T23:13:45.011Z,101450.47
2022-09-05T23:16:13.433Z,101453.97
2022-09-05T23:18:41.288Z,101444.47
2022-09-05T23:21:11.756Z,101451.47
2022-09-05T23:23:41.410Z,101448.94
2022-09-05T23:26:11.942Z,101450.69
2022-09-05T23:28:43.340Z,101452.44
2022-09-05T23:31:12.047Z,101447.25
2022-09-05T23:33:42.366Z,101439.50
2022-09-05T23:36:15.244Z,101443.97
2022-09-05T23:38:43.917Z,101444.91
2022-09-05T23:41:14.387Z,101442.28
2022-09-05T23:43:42.639Z,101435.38
2022-09-05T23:46:10.398Z,101438.91
2022-09-05T23:48:38.388Z,101431.88
2022-09-05T23:51:08.388Z,101438.88
2022-09-05T23:53:36.690Z,101439.78
2022-09-05T23:56:08.124Z,101443.31
2022-09-05T23:58:36.956Z,101440.72
